Terminal Aerodrome Forecast
Issued by NWS

Home | Current Version | Previous Version | Graphics & Text | Print | Product List | Glossary On
Versions: 1 2 3 4 5 6 7 8 9 10 11 12 13 14 15 16 17 18 19 20 21 22
606
FTUS41 KCLE 251121
TAFFDY
TAF
KFDY 251121Z 2512/2612 21008KT P6SM OVC050
     FM251800 06010KT P6SM OVC045
     FM252200 06010KT 6SM HZ OVC035
     FM260200 08008KT 5SM BR OVC025
     FM260800 10006KT 3SM BR VCSH OVC045=

USA.gov is the U.S. government's official web portal to all federal, state and local government web resources and services.